createdAt,value
2022-12-20T00:33:50.016Z,9.710593
2022-12-20T00:34:50.003Z,9.710500
2022-12-20T00:35:49.982Z,9.710750
2022-12-20T00:36:49.972Z,9.710962
2022-12-20T00:37:49.983Z,9.710814
2022-12-20T00:38:50.970Z,9.710680
2022-12-20T00:39:51.741Z,9.710568
2022-12-20T00:40:50.946Z,9.710450
2022-12-20T00:41:49.944Z,9.710537
2022-12-20T00:42:49.943Z,9.710265
2022-12-20T00:43:49.937Z,9.710244
2022-12-20T00:44:49.911Z,9.711415
2022-12-20T00:45:51.745Z,9.711405
2022-12-20T00:46:49.936Z,9.711475
2022-12-20T00:47:49.894Z,9.711548
2022-12-20T00:48:49.885Z,9.711714
2022-12-20T00:49:49.872Z,9.711738
2022-12-20T00:50:49.867Z,9.711699
2022-12-20T00:51:49.875Z,9.711666
2022-12-20T00:52:49.852Z,9.711654
2022-12-20T00:53:49.847Z,9.711602
2022-12-20T00:54:49.833Z,9.711610
2022-12-20T00:55:49.834Z,9.711630
2022-12-20T00:56:49.817Z,9.711800
2022-12-20T00:57:49.811Z,9.711784
2022-12-20T00:58:49.826Z,9.711934
2022-12-20T00:59:49.820Z,9.711844
2022-12-20T01:00:55.791Z,9.711636
2022-12-20T01:01:52.618Z,9.711656
2022-12-20T01:02:50.702Z,9.711692
2022-12-20T01:03:50.512Z,9.711397
2022-12-20T01:04:49.757Z,9.711540
2022-12-20T01:05:49.752Z,9.711664
2022-12-20T01:06:49.739Z,9.711806
2022-12-20T01:07:49.742Z,9.711767
2022-12-20T01:08:49.773Z,9.711726
2022-12-20T01:09:49.720Z,9.711881
2022-12-20T01:10:49.712Z,9.712007
2022-12-20T01:11:49.717Z,9.712737
2022-12-20T01:12:49.711Z,9.713462
2022-12-20T01:13:50.365Z,9.713839
2022-12-20T01:14:49.674Z,9.714263
2022-12-20T01:15:50.723Z,9.713335
2022-12-20T01:16:49.720Z,9.712588
2022-12-20T01:17:49.663Z,9.711360
2022-12-20T01:18:49.651Z,9.711715
2022-12-20T01:19:49.637Z,9.711858
2022-12-20T01:20:49.640Z,9.711801
2022-12-20T01:21:49.638Z,9.711945
2022-12-20T01:22:49.635Z,9.712099
2022-12-20T01:23:49.619Z,9.711995
2022-12-20T01:24:49.608Z,9.712141
2022-12-20T01:25:49.607Z,9.712066
2022-12-20T01:26:49.625Z,9.711955
2022-12-20T01:27:49.583Z,9.711650
2022-12-20T01:28:49.567Z,9.711699
2022-12-20T01:29:49.567Z,9.711554
2022-12-20T01:30:49.584Z,9.711667
2022-12-20T01:31:49.633Z,9.711659
2022-12-20T01:32:49.536Z,9.711713
2022-12-20T01:33:49.530Z,9.711620
2022-12-20T01:34:50.250Z,9.711668
2022-12-20T01:35:49.556Z,9.711607
2022-12-20T01:36:49.558Z,9.711651
2022-12-20T01:37:49.514Z,9.711567
2022-12-20T01:38:49.495Z,9.711528
2022-12-20T01:39:49.498Z,9.711642
2022-12-20T01:40:49.475Z,9.711602
2022-12-20T01:41:49.492Z,9.711773
2022-12-20T01:42:49.459Z,9.711663
2022-12-20T01:43:49.453Z,9.711770
2022-12-20T01:44:49.465Z,9.711821
2022-12-20T01:45:49.491Z,9.711829
2022-12-20T01:46:49.429Z,9.711866
2022-12-20T01:47:50.290Z,9.711724
2022-12-20T01:48:49.442Z,9.711693
2022-12-20T01:49:49.410Z,9.711790
2022-12-20T01:50:49.412Z,9.711804
2022-12-20T01:51:49.404Z,9.711759
2022-12-20T01:52:49.397Z,9.711986
2022-12-20T01:53:49.376Z,9.711854
2022-12-20T01:54:49.390Z,9.711799
2022-12-20T01:55:53.340Z,9.711842
2022-12-20T01:56:49.367Z,9.711737
2022-12-20T01:57:49.345Z,9.711771
2022-12-20T01:58:49.353Z,9.711744
2022-12-20T01:59:50.335Z,9.711830
2022-12-20T02:00:49.381Z,9.711590
2022-12-20T02:01:49.953Z,9.711706
2022-12-20T02:02:49.516Z,9.711557
2022-12-20T02:03:49.310Z,9.711592
2022-12-20T02:04:49.306Z,9.711913
2022-12-20T02:05:49.285Z,9.711870
2022-12-20T02:06:49.306Z,9.711940
2022-12-20T02:07:49.277Z,9.712376
2022-12-20T02:08:49.253Z,9.712183
2022-12-20T02:09:49.258Z,9.712194
2022-12-20T02:10:49.252Z,9.712216
2022-12-20T02:11:49.242Z,9.711938
2022-12-20T02:12:49.233Z,9.711956
2022-12-20T02:13:49.765Z,9.712143
2022-12-20T02:14:49.267Z,9.711858
2022-12-20T02:15:49.210Z,9.711845
2022-12-20T02:16:49.271Z,9.711916
2022-12-20T02:17:50.840Z,9.711730
2022-12-20T02:18:49.203Z,9.711784
2022-12-20T02:19:50.179Z,9.711697
2022-12-20T02:20:49.182Z,9.711924
2022-12-20T02:21:49.166Z,9.711976
2022-12-20T02:22:49.155Z,9.711610
2022-12-20T02:23:49.846Z,9.711700
2022-12-20T02:24:49.769Z,9.711691
2022-12-20T02:25:50.759Z,9.711830
2022-12-20T02:26:49.147Z,9.712115
2022-12-20T02:27:49.863Z,9.712116
2022-12-20T02:28:49.119Z,9.712185
2022-12-20T02:29:49.099Z,9.712250
2022-12-20T02:30:49.094Z,9.711746
2022-12-20T02:31:49.141Z,9.711973
2022-12-20T02:32:49.078Z,9.711750
2022-12-20T02:33:50.874Z,9.711755
2022-12-20T02:34:49.062Z,9.711770
2022-12-20T02:35:49.057Z,9.711952
2022-12-20T02:36:49.763Z,9.712049
2022-12-20T02:37:49.847Z,9.711826
2022-12-20T02:38:49.038Z,9.712142
2022-12-20T02:39:49.026Z,9.712090
2022-12-20T02:40:49.764Z,9.712205
2022-12-20T02:41:49.842Z,9.711623
2022-12-20T02:42:49.004Z,9.711618
2022-12-20T02:43:50.836Z,9.711655
2022-12-20T02:44:49.005Z,9.711643
2022-12-20T02:45:48.995Z,9.711700
2022-12-20T02:46:49.846Z,9.711660
2022-12-20T02:47:48.964Z,9.711686
2022-12-20T02:48:48.944Z,9.711641
2022-12-20T02:49:48.941Z,9.711637
2022-12-20T02:50:48.933Z,9.711616
2022-12-20T02:51:48.962Z,9.711631
2022-12-20T02:52:48.913Z,9.711590
2022-12-20T02:53:48.905Z,9.711561
2022-12-20T02:54:48.908Z,9.711483
2022-12-20T02:55:48.901Z,9.711678
2022-12-20T02:56:48.912Z,9.711591
2022-12-20T02:57:50.358Z,9.711574
2022-12-20T02:58:48.875Z,9.711647
2022-12-20T02:59:48.869Z,9.711632
2022-12-20T03:00:48.855Z,9.711718
2022-12-20T03:01:49.896Z,9.711752
2022-12-20T03:02:50.950Z,9.711716
2022-12-20T03:03:50.488Z,9.711676
2022-12-20T03:04:48.826Z,9.711559
2022-12-20T03:05:48.815Z,9.711475
2022-12-20T03:06:48.873Z,9.711560
2022-12-20T03:07:49.336Z,9.711703
2022-12-20T03:08:50.339Z,9.711717
2022-12-20T03:09:48.789Z,9.711672
2022-12-20T03:10:48.761Z,9.711673
2022-12-20T03:11:50.283Z,9.711660
2022-12-20T03:12:48.777Z,9.711679
2022-12-20T03:13:49.869Z,9.711706
2022-12-20T03:14:48.736Z,9.711668
2022-12-20T03:15:50.362Z,9.711788
2022-12-20T03:16:48.772Z,9.711658
2022-12-20T03:17:48.717Z,9.711695
2022-12-20T03:18:49.351Z,9.711639
2022-12-20T03:19:49.725Z,9.711664
2022-12-20T03:20:48.702Z,9.711800
2022-12-20T03:21:48.667Z,9.711936
2022-12-20T03:22:48.788Z,9.711858
2022-12-20T03:23:48.707Z,9.711971
2022-12-20T03:24:48.658Z,9.711880
2022-12-20T03:25:49.283Z,9.711600
2022-12-20T03:26:49.664Z,9.711529
2022-12-20T03:27:48.654Z,9.711725
2022-12-20T03:28:49.386Z,9.711789
2022-12-20T03:29:48.616Z,9.711755
2022-12-20T03:30:48.719Z,9.711864
2022-12-20T03:31:48.614Z,9.711640
2022-12-20T03:32:49.826Z,9.711601
2022-12-20T03:33:48.585Z,9.711629
2022-12-20T03:34:48.578Z,9.711741
2022-12-20T03:35:48.584Z,9.711807
2022-12-20T03:36:48.571Z,9.711811
2022-12-20T03:37:49.361Z,9.711907
2022-12-20T03:38:48.875Z,9.711902
2022-12-20T03:39:49.557Z,9.711795
2022-12-20T03:40:48.547Z,9.711526
2022-12-20T03:41:48.564Z,9.711589
2022-12-20T03:42:49.368Z,9.711593
2022-12-20T03:43:49.370Z,9.711462
2022-12-20T03:44:48.568Z,9.711729
2022-12-20T03:45:49.628Z,9.711732
2022-12-20T03:46:49.344Z,9.711794
2022-12-20T03:47:49.280Z,9.711761
2022-12-20T03:48:48.500Z,9.711588
2022-12-20T03:49:48.476Z,9.711611
2022-12-20T03:50:48.452Z,9.711502
2022-12-20T03:51:48.447Z,9.711531
2022-12-20T03:52:48.462Z,9.711671
2022-12-20T03:53:52.275Z,9.711694
2022-12-20T03:54:49.369Z,9.711828
2022-12-20T03:55:50.295Z,9.711884
2022-12-20T03:56:48.409Z,9.712012
2022-12-20T03:57:48.402Z,9.711742
2022-12-20T03:58:48.406Z,9.711884
2022-12-20T03:59:48.403Z,9.712055
2022-12-20T04:00:48.378Z,9.711916
2022-12-20T04:01:48.516Z,9.711569
2022-12-20T04:02:48.522Z,9.711623
2022-12-20T04:03:49.496Z,9.711695
2022-12-20T04:04:48.357Z,9.711616
2022-12-20T04:05:48.333Z,9.711804
2022-12-20T04:06:48.383Z,9.711766
2022-12-20T04:07:48.321Z,9.711933
2022-12-20T04:08:48.310Z,9.711935
2022-12-20T04:09:48.306Z,9.711456
2022-12-20T04:10:49.302Z,9.711581
2022-12-20T04:11:48.290Z,9.712200
2022-12-20T04:12:48.286Z,9.711828
2022-12-20T04:13:48.272Z,9.711371
2022-12-20T04:14:48.270Z,9.711747
2022-12-20T04:15:48.815Z,9.711720
2022-12-20T04:16:48.264Z,9.711589
2022-12-20T04:17:48.251Z,9.711624
2022-12-20T04:18:48.239Z,9.711598
2022-12-20T04:19:48.259Z,9.711721
2022-12-20T04:20:48.217Z,9.711678
2022-12-20T04:21:48.219Z,9.711734
2022-12-20T04:22:48.211Z,9.711749
2022-12-20T04:23:48.311Z,9.711733
2022-12-20T04:24:48.201Z,9.711540
2022-12-20T04:25:48.204Z,9.711637
2022-12-20T04:26:48.186Z,9.711629
2022-12-20T04:27:48.202Z,9.711818
2022-12-20T04:28:48.164Z,9.711972
2022-12-20T04:29:49.860Z,9.712078
2022-12-20T04:30:48.185Z,9.712219
2022-12-20T04:31:49.218Z,9.711926
2022-12-20T04:32:48.125Z,9.711757
2022-12-20T04:33:48.139Z,9.711559
2022-12-20T04:34:48.111Z,9.711496
2022-12-20T04:35:48.105Z,9.711722
2022-12-20T04:36:48.103Z,9.711753
2022-12-20T04:37:48.102Z,9.711942
2022-12-20T04:38:48.096Z,9.711910
2022-12-20T04:39:48.077Z,9.711884
2022-12-20T04:40:48.073Z,9.711647
2022-12-20T04:41:48.089Z,9.711793
2022-12-20T04:42:48.052Z,9.711821
2022-12-20T04:43:48.082Z,9.711833
2022-12-20T04:44:48.042Z,9.711884
2022-12-20T04:45:48.032Z,9.712057
2022-12-20T04:46:48.872Z,9.711890
2022-12-20T04:47:48.008Z,9.712301
2022-12-20T04:48:57.988Z,9.712229
2022-12-20T04:49:52.783Z,9.711968
2022-12-20T04:50:47.993Z,9.712011
2022-12-20T04:51:47.991Z,9.712034
2022-12-20T04:52:48.502Z,9.712105
2022-12-20T04:53:48.073Z,9.712176
2022-12-20T04:54:47.959Z,9.712024
2022-12-20T04:55:47.960Z,9.712114
2022-12-20T04:56:47.935Z,9.712334
2022-12-20T04:57:47.926Z,9.712255
2022-12-20T04:58:47.926Z,9.712490
2022-12-20T04:59:47.919Z,9.712648
2022-12-20T05:00:47.926Z,9.712470
2022-12-20T05:01:48.110Z,9.712393
2022-12-20T05:02:48.096Z,9.712625
2022-12-20T05:03:47.956Z,9.712420
2022-12-20T05:04:47.877Z,9.712515
2022-12-20T05:05:47.861Z,9.712523
2022-12-20T05:06:47.856Z,9.712331
2022-12-20T05:07:47.864Z,9.712013
2022-12-20T05:08:47.842Z,9.711848
2022-12-20T05:09:47.851Z,9.712029
2022-12-20T05:10:47.829Z,9.712078
2022-12-20T05:11:47.815Z,9.712199
2022-12-20T05:12:47.819Z,9.712302
2022-12-20T05:13:48.360Z,9.712451
2022-12-20T05:14:47.793Z,9.712522
2022-12-20T05:15:47.851Z,9.712675
2022-12-20T05:16:47.782Z,9.712630
2022-12-20T05:17:50.805Z,9.712387
2022-12-20T05:18:49.527Z,9.712356
2022-12-20T05:19:50.367Z,9.711920
2022-12-20T05:20:48.888Z,9.711878
2022-12-20T05:21:47.742Z,9.711629
2022-12-20T05:22:47.729Z,9.711674
2022-12-20T05:23:53.295Z,9.711591
2022-12-20T05:24:48.710Z,9.711720
2022-12-20T05:25:47.701Z,9.711446
2022-12-20T05:26:47.699Z,9.711726
2022-12-20T05:27:47.695Z,9.711529
2022-12-20T05:28:47.699Z,9.711675
2022-12-20T05:29:47.682Z,9.711621
2022-12-20T05:30:47.666Z,9.711621
2022-12-20T05:31:47.907Z,9.711707
2022-12-20T05:32:47.650Z,9.711526
2022-12-20T05:33:47.643Z,9.711731
2022-12-20T05:34:47.641Z,9.711655
2022-12-20T05:47:54.921Z,9.710295
2022-12-20T05:48:54.903Z,9.711380
2022-12-20T05:49:54.965Z,9.711464
2022-12-20T05:50:54.977Z,9.711659
2022-12-20T05:51:55.772Z,9.711617
2022-12-20T05:52:54.880Z,9.712008
2022-12-20T05:53:55.773Z,9.711631
2022-12-20T05:54:54.882Z,9.711583
2022-12-20T05:55:54.877Z,9.711541
2022-12-20T05:56:54.851Z,9.711578
2022-12-20T05:57:59.266Z,9.711715
2022-12-20T05:58:54.848Z,9.711684
2022-12-20T05:59:55.826Z,9.711697
2022-12-20T06:00:55.826Z,9.711780
2022-12-20T06:01:56.008Z,9.711556
2022-12-20T06:02:55.551Z,9.711734
2022-12-20T06:03:54.877Z,9.711537
2022-12-20T06:04:54.785Z,9.711637
2022-12-20T06:05:55.364Z,9.711464
2022-12-20T06:06:56.358Z,9.711410
2022-12-20T06:07:54.762Z,9.711359
2022-12-20T06:08:54.750Z,9.711473
2022-12-20T06:09:54.755Z,9.711550
2022-12-20T21:40:47.361Z,9.711581
2022-12-20T21:41:47.359Z,9.711598
2022-12-20T21:42:47.367Z,9.711661
2022-12-20T21:43:47.337Z,9.711643
2022-12-20T21:44:47.322Z,9.711690
2022-12-20T21:45:47.383Z,9.711627
2022-12-20T21:46:47.415Z,9.711669
2022-12-20T21:47:47.305Z,9.711613
2022-12-20T21:48:47.304Z,9.711496
2022-12-20T21:49:47.311Z,9.711561
2022-12-20T21:50:47.271Z,9.711662
2022-12-20T21:51:47.279Z,9.711655
2022-12-20T21:52:47.261Z,9.711648
2022-12-20T21:53:47.272Z,9.711647
2022-12-20T21:54:47.253Z,9.711603
2022-12-20T21:55:47.235Z,9.711588
2022-12-20T21:56:47.253Z,9.711629
2022-12-20T21:57:47.211Z,9.711637
2022-12-20T21:58:47.217Z,9.711620
2022-12-20T21:59:47.209Z,9.711658
2022-12-20T22:00:52.606Z,9.711623
2022-12-20T22:01:49.315Z,9.711645
2022-12-20T22:02:48.263Z,9.711622
2022-12-20T22:03:47.203Z,9.711660
2022-12-20T22:04:47.172Z,9.711630
2022-12-20T22:05:47.195Z,9.711592
2022-12-20T22:06:51.044Z,9.711621
2022-12-20T22:07:47.141Z,9.711635
2022-12-20T22:08:47.134Z,9.711665
2022-12-20T22:09:47.978Z,9.711653
2022-12-20T22:10:47.124Z,9.711636
2022-12-20T22:11:47.124Z,9.711608
2022-12-20T22:12:47.092Z,9.711603
2022-12-20T22:13:47.114Z,9.711657
2022-12-20T22:14:47.094Z,9.711636
2022-12-20T22:15:47.090Z,9.711621
2022-12-20T22:16:47.120Z,9.711759
2022-12-20T22:17:47.065Z,9.711784
2022-12-20T22:18:47.056Z,9.711812
2022-12-20T22:19:47.057Z,9.711879
2022-12-20T22:20:47.042Z,9.711765
2022-12-20T22:21:49.777Z,9.711677
2022-12-20T22:22:48.019Z,9.711662
2022-12-20T22:23:47.030Z,9.711686
2022-12-20T22:24:47.028Z,9.711650
2022-12-20T22:25:46.993Z,9.711646
2022-12-20T22:26:47.004Z,9.711617
2022-12-20T22:27:46.976Z,9.711649
2022-12-20T22:28:47.069Z,9.711616
2022-12-20T22:29:46.963Z,9.711631
2022-12-20T22:30:46.951Z,9.711718
2022-12-20T22:31:47.044Z,9.711621
2022-12-20T22:32:46.951Z,9.711839
2022-12-20T22:33:46.945Z,9.711698
2022-12-20T22:34:46.914Z,9.711825
2022-12-20T22:35:46.918Z,9.711854
2022-12-20T22:36:46.904Z,9.711781
2022-12-20T22:37:46.886Z,9.711745
2022-12-20T22:38:46.945Z,9.711626
2022-12-20T22:39:46.885Z,9.711717
2022-12-20T22:40:46.881Z,9.711861
2022-12-20T22:41:46.869Z,9.711812
2022-12-20T22:42:46.854Z,9.711799
2022-12-20T22:43:46.840Z,9.711771
2022-12-20T22:44:46.842Z,9.711697
2022-12-20T22:45:46.890Z,9.711702
2022-12-20T22:46:46.847Z,9.711762
2022-12-20T22:47:46.817Z,9.711720
2022-12-20T22:48:46.803Z,9.711703
2022-12-20T22:49:46.817Z,9.711689
2022-12-20T22:50:46.792Z,9.711876
2022-12-20T22:51:55.163Z,9.711720
2022-12-20T22:52:48.800Z,9.711665
2022-12-20T22:53:46.763Z,9.711658
2022-12-20T22:54:46.771Z,9.711634
2022-12-20T22:55:46.739Z,9.711714
2022-12-20T22:56:46.745Z,9.711848
2022-12-20T22:57:48.559Z,9.711793
2022-12-20T22:58:48.606Z,9.711783
2022-12-20T22:59:46.736Z,9.711767
2022-12-20T23:00:46.696Z,9.712008
2022-12-20T23:01:47.249Z,9.712002
2022-12-20T23:02:46.959Z,9.711944
2022-12-20T23:03:46.706Z,9.711931
2022-12-20T23:04:46.669Z,9.711798
2022-12-20T23:05:46.654Z,9.711815
2022-12-20T23:06:46.658Z,9.711937
2022-12-20T23:07:46.736Z,9.712125
2022-12-20T23:08:47.624Z,9.712036
2022-12-20T23:09:46.648Z,9.712009
2022-12-20T23:10:46.626Z,9.711800
2022-12-20T23:11:46.623Z,9.711719
2022-12-20T23:12:46.630Z,9.711703
2022-12-20T23:13:46.600Z,9.711703
2022-12-20T23:14:46.599Z,9.711705
2022-12-20T23:15:46.579Z,9.711742
2022-12-20T23:16:46.643Z,9.711717
2022-12-20T23:17:46.581Z,9.711745
2022-12-20T23:18:46.591Z,9.711680
2022-12-20T23:19:46.549Z,9.711725
2022-12-20T23:20:46.536Z,9.711748
2022-12-20T23:21:46.528Z,9.711740
2022-12-20T23:22:46.515Z,9.711662
2022-12-20T23:23:50.939Z,9.711689
2022-12-20T23:24:48.509Z,9.711694
2022-12-20T23:25:46.546Z,9.711685
2022-12-20T23:26:46.500Z,9.711677
2022-12-20T23:27:47.041Z,9.711675
2022-12-20T23:28:46.474Z,9.711703
2022-12-20T23:29:46.485Z,9.711679
2022-12-20T23:30:46.493Z,9.711675
2022-12-20T23:31:48.607Z,9.711658
2022-12-20T23:32:46.518Z,9.711660
2022-12-20T23:33:48.052Z,9.711634
2022-12-20T23:34:46.444Z,9.711656
2022-12-20T23:35:46.421Z,9.711607
2022-12-20T23:36:48.523Z,9.711672
2022-12-20T23:37:46.400Z,9.711704
2022-12-20T23:38:47.041Z,9.711736
2022-12-20T23:39:46.383Z,9.711750
2022-12-20T23:40:46.395Z,9.711706
2022-12-20T23:41:46.398Z,9.711560
2022-12-20T23:42:46.380Z,9.711647
2022-12-20T23:43:46.360Z,9.711853
2022-12-20T23:44:46.362Z,9.711836
2022-12-20T23:45:46.423Z,9.711764
2022-12-20T23:46:46.336Z,9.711632
2022-12-20T23:47:46.331Z,9.711527
2022-12-20T23:48:47.040Z,9.711423
2022-12-20T23:49:46.305Z,9.711745
2022-12-20T23:50:46.300Z,9.711289
2022-12-20T23:51:46.284Z,9.711002
2022-12-20T23:52:46.291Z,9.711364
2022-12-20T23:53:46.277Z,9.711425
2022-12-20T23:54:47.189Z,9.712013
2022-12-20T23:55:46.255Z,9.711965
2022-12-20T23:56:46.262Z,9.711671
2022-12-20T23:57:46.256Z,9.711430
2022-12-20T23:58:46.259Z,9.710939
2022-12-20T23:59:46.229Z,9.710912
